Petersburg, VA

3:48 AM EDT on June 03, 2015 (GMT -0400)
Richmond International | | Change Station
CLOSE
Current Station
Airport
Location: Richmond,
Elevation: 161 ft
Nearby Weather Stations

Elev 161 ft 37.51 °N, 77.32 °W | Updated 54 minutes ago

Overcast
Overcast
61 °F
Feels Like 61 °F
N
8
Wind Variable Wind from NNE

Today
High -- | Low -- °F
--% Chance of Precip.
Yesterday
High -- | Low -- °F
Precip. -- in
5:50 AM 8:25 PM
Full, 100% visible
Pressure 30.09 in
Visibility 6.0 miles
Clouds Mostly Cloudy 500 ft
Overcast 2000 ft
Dew Point 59 °F
Humidity 93%
Rainfall 0.01 in
Snow Depth Not available.
UV 0 out of 12
Pollen 1.60 out of 12
Air Quality Not available.
Flu Activity Sporadic
METAR KRIC 030654Z 03007KT 6SM -RA BR BKN005 OVC020 16/15 A3007 RMK AO2 DZE10RAB10 SLP187 P0001 T01610150

More Conditions Fewer Conditions

Pressure 30.09 in
Visibility 6.0 miles
Clouds Mostly Cloudy 500 ft
Overcast 2000 ft
Dew Point 59 °F
Humidity 93%
Rainfall 0.01 in
Snow Depth Not available.
UV 0 out of 12
Pollen 1.60 out of 12
Air Quality Not available.
Flu Activity Sporadic
METAR KRIC 030654Z 03007KT 6SM -RA BR BKN005 OVC020 16/15 A3007 RMK AO2 DZE10RAB10 SLP187 P0001 T01610150

More Conditions Fewer Conditions

10-Day Weather Forecast

×

Almanac

Astronomy

Jun. 03, 2015 Rise Set
Actual Time
Civil Twilight
Nautical Twilight
Astronomical Twilight
Moon
Length of Visible Light
Length of Day
Tomorrow will be .
, % of the Moon is Illuminated

Today's Extremes

State Highs State Lows

Community

WunderPhotos

Upload Photos

1,826,187 photos uploaded!

WunderBlogs® & News

Nearby

Air Quality

  Air Quality AQ Index Pollutant
Not available.

Snow Depth

Station Depth Elevation

Earthquake Activity

City Distance Mag. Time & Date
Minimum magnitude displayed is 2.5.

Coastal Water Temperatures

Place Temperature

Stations

Nearby Weather Stations

Station Location Temp. Windchill Dew Point Humidity Wind Precip. Elev Updated Type